createdAt,value
2023-02-01T00:00:12.801Z,4.40
2023-02-01T00:03:02.089Z,4.43
2023-02-01T00:05:33.143Z,4.39
2023-02-01T00:08:02.396Z,4.37
2023-02-01T00:10:31.990Z,4.38
2023-02-01T00:13:01.161Z,4.36
2023-02-01T00:15:30.730Z,4.37
2023-02-01T00:18:00.031Z,4.38
2023-02-01T00:20:29.570Z,4.37
2023-02-01T00:23:00.222Z,4.33
2023-02-01T00:25:29.936Z,4.35
2023-02-01T00:28:00.516Z,4.38
2023-02-01T00:30:30.109Z,4.37
2023-02-01T00:32:59.326Z,4.35
2023-02-01T00:35:28.929Z,4.33
2023-02-01T00:38:00.665Z,4.42
2023-02-01T00:40:30.199Z,4.46
2023-02-01T00:42:59.713Z,4.49
2023-02-01T00:45:29.281Z,4.49
2023-02-01T00:47:58.518Z,4.51
2023-02-01T00:50:28.091Z,4.54
2023-02-01T00:52:57.390Z,4.55
2023-02-01T00:55:28.438Z,4.56
2023-02-01T00:57:57.674Z,4.51
2023-02-01T01:00:27.282Z,4.45
2023-02-01T01:02:57.120Z,4.46
2023-02-01T01:05:28.740Z,4.39
2023-02-01T01:07:57.961Z,4.40
2023-02-01T01:10:29.023Z,4.46
2023-02-01T01:12:58.328Z,4.51
2023-02-01T01:15:27.882Z,4.43
2023-02-01T01:17:57.198Z,4.49
2023-02-01T01:20:26.725Z,4.51
2023-02-01T01:22:55.996Z,4.43
2023-02-01T01:25:25.527Z,4.39
2023-02-01T01:27:56.232Z,4.42
2023-02-01T01:30:25.843Z,4.39
2023-02-01T01:32:55.190Z,4.40
2023-02-01T01:35:24.710Z,4.37
2023-02-01T01:37:53.956Z,4.42
2023-02-01T01:40:23.737Z,4.42
2023-02-01T01:42:55.691Z,4.38
2023-02-01T01:45:28.343Z,4.35
2023-02-01T01:47:58.179Z,4.29
2023-02-01T01:50:28.980Z,4.44
2023-02-01T01:52:58.552Z,4.38
2023-02-01T01:55:28.719Z,4.34
2023-02-01T01:57:58.944Z,4.36
2023-02-01T02:00:30.096Z,4.33
2023-02-01T02:03:00.037Z,4.29
2023-02-01T02:05:30.423Z,4.34
2023-02-01T02:08:00.926Z,4.32
2023-02-01T02:10:44.270Z,4.32
2023-02-01T02:13:13.598Z,4.34
2023-02-01T02:15:46.109Z,4.31
2023-02-01T02:18:17.196Z,4.29
2023-02-01T02:20:54.060Z,4.27
2023-02-01T02:23:44.038Z,4.30
2023-02-01T02:26:37.571Z,4.18
2023-02-01T02:29:24.481Z,4.20
2023-02-01T02:32:00.784Z,4.15
2023-02-01T02:34:31.982Z,4.23
2023-02-01T02:37:03.836Z,4.17
2023-02-01T02:39:37.264Z,4.09
2023-02-01T02:42:26.109Z,4.10
2023-02-01T02:45:25.036Z,4.06
2023-02-01T02:47:55.894Z,4.04
2023-02-01T02:50:45.504Z,4.04
2023-02-01T02:53:33.867Z,3.97
2023-02-01T02:56:20.180Z,4.12
2023-02-01T02:59:07.169Z,4.03
2023-02-01T03:01:53.722Z,3.95
2023-02-01T03:04:24.635Z,3.84
2023-02-01T03:06:55.798Z,3.79
2023-02-01T03:09:25.549Z,3.73
2023-02-01T03:12:08.989Z,3.73
2023-02-01T03:14:38.547Z,3.58
2023-02-01T03:17:08.684Z,3.62
2023-02-01T03:19:39.116Z,3.60
2023-02-01T03:22:10.405Z,3.60
2023-02-01T03:24:41.138Z,3.42
2023-02-01T03:27:11.781Z,3.39
2023-02-01T03:29:42.700Z,3.37
2023-02-01T03:32:11.941Z,3.38
2023-02-01T03:34:41.533Z,3.38
2023-02-01T03:37:12.657Z,3.43
2023-02-01T03:39:42.873Z,3.50
2023-02-01T03:42:13.157Z,3.44
2023-02-01T03:44:43.965Z,3.42
2023-02-01T03:47:14.568Z,3.40
2023-02-01T03:49:44.606Z,3.41
2023-02-01T03:52:16.207Z,3.48
2023-02-01T03:54:45.737Z,3.48
2023-02-01T03:57:15.317Z,3.58
2023-02-01T03:59:45.278Z,3.56
2023-02-01T04:02:14.551Z,3.61
2023-02-01T04:04:44.176Z,3.67
2023-02-01T04:07:14.900Z,3.68
2023-02-01T04:09:44.555Z,3.75
2023-02-01T04:12:13.728Z,3.72
2023-02-01T04:14:43.309Z,3.73
2023-02-01T04:17:12.587Z,3.64
2023-02-01T04:19:42.267Z,3.71
2023-02-01T04:22:11.494Z,3.69
2023-02-01T04:24:42.631Z,3.69
2023-02-01T04:27:11.942Z,3.69
2023-02-01T04:29:42.128Z,3.69
2023-02-01T04:32:11.402Z,3.73
2023-02-01T04:34:40.932Z,3.75
2023-02-01T04:37:10.245Z,3.77
2023-02-01T04:39:39.804Z,3.79
2023-02-01T04:42:10.990Z,3.75
2023-02-01T04:44:42.851Z,3.74
2023-02-01T04:47:12.139Z,3.79
2023-02-01T04:49:41.679Z,3.75
2023-02-01T04:52:10.929Z,3.82
2023-02-01T04:54:40.522Z,3.89
2023-02-01T04:57:12.419Z,3.71
2023-02-01T04:59:42.033Z,3.79
2023-02-01T05:02:11.339Z,3.81
2023-02-01T05:04:41.468Z,3.73
2023-02-01T05:07:10.859Z,3.76
2023-02-01T05:09:40.397Z,3.81
2023-02-01T05:12:29.221Z,3.78
2023-02-01T05:14:58.773Z,3.79
2023-02-01T05:17:28.012Z,3.75
2023-02-01T05:19:57.538Z,3.71
2023-02-01T05:22:26.802Z,3.70
2023-02-01T05:24:56.370Z,3.77
2023-02-01T05:27:27.049Z,3.79
2023-02-01T05:29:56.623Z,3.82
2023-02-01T05:32:25.899Z,3.93
2023-02-01T05:34:55.472Z,3.90
2023-02-01T05:37:24.742Z,4.08
2023-02-01T05:39:54.423Z,3.96
2023-02-01T05:42:23.665Z,3.93
2023-02-01T05:44:54.785Z,4.06
2023-02-01T05:47:24.072Z,3.98
2023-02-01T05:49:53.654Z,4.05
2023-02-01T05:52:22.998Z,4.03
2023-02-01T05:54:53.766Z,3.97
2023-02-01T05:57:23.077Z,4.01
2023-02-01T05:59:52.779Z,4.04
2023-02-01T06:02:25.318Z,4.01
2023-02-01T06:04:55.179Z,4.10
2023-02-01T06:07:24.761Z,4.08
2023-02-01T06:09:54.288Z,4.10
2023-02-01T06:12:23.509Z,4.07
2023-02-01T06:14:53.045Z,4.14
2023-02-01T06:17:23.862Z,4.07
2023-02-01T06:19:53.595Z,4.10
2023-02-01T06:22:23.650Z,4.04
2023-02-01T06:24:53.263Z,3.95
2023-02-01T06:27:22.475Z,3.98
2023-02-01T06:29:52.128Z,3.96
2023-02-01T06:32:21.337Z,3.87
2023-02-01T06:34:53.622Z,3.80
2023-02-01T06:37:23.022Z,3.81
2023-02-01T06:39:52.752Z,3.88
2023-02-01T06:42:22.102Z,3.79
2023-02-01T06:44:51.675Z,3.80
2023-02-01T06:47:20.923Z,3.80
2023-02-01T06:49:50.587Z,3.75
2023-02-01T06:52:21.329Z,3.81
2023-02-01T06:54:50.950Z,3.82
2023-02-01T06:57:20.183Z,3.80
2023-02-01T06:59:49.791Z,3.95
2023-02-01T07:02:19.181Z,3.96
2023-02-01T07:04:49.441Z,3.93
2023-02-01T07:07:20.693Z,3.98
2023-02-01T07:09:51.973Z,3.93
2023-02-01T07:12:23.407Z,3.96
2023-02-01T07:14:53.039Z,3.91
2023-02-01T07:17:22.297Z,4.02
2023-02-01T07:19:51.927Z,4.00
2023-02-01T07:22:21.189Z,4.01
2023-02-01T07:24:52.246Z,4.12
2023-02-01T07:27:22.257Z,3.98
2023-02-01T07:29:51.888Z,4.00
2023-02-01T07:32:21.103Z,4.07
2023-02-01T07:34:50.734Z,3.98
2023-02-01T07:37:19.907Z,4.03
2023-02-01T07:39:49.503Z,4.14
2023-02-01T07:42:20.197Z,4.15
2023-02-01T07:44:49.880Z,4.09
2023-02-01T07:47:19.225Z,4.05
2023-02-01T07:49:48.861Z,4.08
2023-02-01T07:52:18.086Z,4.23
2023-02-01T07:54:47.670Z,4.25
2023-02-01T07:57:16.952Z,4.33
2023-02-01T08:00:01.710Z,4.35
2023-02-01T08:02:30.983Z,4.37
2023-02-01T08:05:00.720Z,4.44
2023-02-01T08:07:29.904Z,4.51
2023-02-01T08:09:59.858Z,4.48
2023-02-01T08:12:29.252Z,4.59
2023-02-01T08:15:00.296Z,4.60
2023-02-01T08:17:30.352Z,4.72
2023-02-01T08:19:59.959Z,4.65
2023-02-01T08:22:29.153Z,4.80
2023-02-01T08:25:02.404Z,4.86
2023-02-01T08:27:31.716Z,4.84
2023-02-01T08:30:02.832Z,4.82
2023-02-01T08:32:32.112Z,4.83
2023-02-01T08:35:01.687Z,4.92
2023-02-01T08:37:30.997Z,4.90
2023-02-01T08:40:00.690Z,4.89
2023-02-01T08:42:47.271Z,5.00
2023-02-01T08:45:18.609Z,5.05
2023-02-01T08:47:48.273Z,5.05
2023-02-01T08:50:18.383Z,5.01
2023-02-01T08:52:47.677Z,5.06
2023-02-01T08:55:17.435Z,5.13
2023-02-01T08:57:46.714Z,5.09
2023-02-01T09:00:17.570Z,5.13
2023-02-01T09:02:48.399Z,5.18
2023-02-01T09:05:20.404Z,5.13
2023-02-01T09:07:49.586Z,5.14
2023-02-01T09:10:33.521Z,5.25
2023-02-01T09:13:04.215Z,5.38
2023-02-01T09:15:33.928Z,5.42
2023-02-01T09:18:04.627Z,5.47
2023-02-01T09:20:34.214Z,5.47
2023-02-01T09:23:03.404Z,5.58
2023-02-01T09:25:32.929Z,5.46
2023-02-01T09:28:02.175Z,5.48
2023-02-01T09:30:31.719Z,5.53
2023-02-01T09:33:01.002Z,5.55
2023-02-01T09:35:31.990Z,5.62
2023-02-01T09:38:01.256Z,5.60
2023-02-01T09:40:30.821Z,5.63
2023-02-01T09:43:03.317Z,5.70
2023-02-01T09:45:34.767Z,5.68
2023-02-01T09:48:05.581Z,5.68
2023-02-01T09:50:38.488Z,5.76
2023-02-01T09:53:08.279Z,5.83
2023-02-01T09:55:39.401Z,5.92
2023-02-01T09:58:08.987Z,5.87
2023-02-01T10:00:39.149Z,5.97
2023-02-01T10:03:10.501Z,6.02
2023-02-01T10:05:44.774Z,6.01
2023-02-01T10:08:15.383Z,5.94
2023-02-01T10:10:46.717Z,5.96
2023-02-01T10:13:22.033Z,6.01
2023-02-01T10:15:56.695Z,6.17
2023-02-01T10:18:29.855Z,6.14
2023-02-01T10:21:03.930Z,6.02
2023-02-01T10:23:37.594Z,5.96
2023-02-01T10:26:08.475Z,5.95
2023-02-01T10:28:37.792Z,5.90
2023-02-01T10:31:07.515Z,5.94
2023-02-01T10:33:37.730Z,6.06
2023-02-01T10:36:18.118Z,5.94
2023-02-01T10:38:47.479Z,5.93
2023-02-01T10:41:18.012Z,5.91
2023-02-01T10:43:47.484Z,5.83
2023-02-01T10:46:17.008Z,5.91
2023-02-01T10:48:46.225Z,6.00
2023-02-01T10:51:17.530Z,6.06
2023-02-01T10:53:48.564Z,6.02
2023-02-01T10:56:21.621Z,5.96
2023-02-01T10:58:50.897Z,5.99
2023-02-01T11:01:20.797Z,6.02
2023-02-01T11:03:54.566Z,6.07
2023-02-01T11:06:30.371Z,6.10
2023-02-01T11:09:00.241Z,6.09
2023-02-01T11:11:30.236Z,6.31
2023-02-01T11:14:00.363Z,6.26
2023-02-01T11:16:35.359Z,6.21
2023-02-01T11:19:04.657Z,6.34
2023-02-01T11:21:35.745Z,6.34
2023-02-01T11:24:05.276Z,6.52
2023-02-01T11:26:35.132Z,6.56
2023-02-01T11:29:05.865Z,6.53
2023-02-01T11:31:35.499Z,6.33
2023-02-01T11:34:08.010Z,6.37
2023-02-01T11:36:38.980Z,6.35
2023-02-01T11:39:18.198Z,6.24
2023-02-01T11:41:59.242Z,6.19
2023-02-01T11:44:45.970Z,6.13
2023-02-01T11:47:26.271Z,6.12
2023-02-01T11:49:56.265Z,6.18
2023-02-01T11:52:32.745Z,6.14
2023-02-01T11:55:05.800Z,6.23
2023-02-01T11:57:43.204Z,6.35
2023-02-01T12:00:17.520Z,6.29
2023-02-01T12:03:02.760Z,6.35
2023-02-01T12:05:37.548Z,6.38
2023-02-01T12:08:12.352Z,6.37
2023-02-01T12:10:45.401Z,6.34
2023-02-01T12:13:17.066Z,6.29
2023-02-01T12:15:49.631Z,6.33
2023-02-01T12:18:33.895Z,6.34
2023-02-01T12:21:07.396Z,6.25
2023-02-01T12:23:43.838Z,6.23
2023-02-01T12:26:20.041Z,6.22
2023-02-01T12:29:16.360Z,6.20
2023-02-01T12:31:48.771Z,6.09
2023-02-01T12:34:23.288Z,5.98
2023-02-01T12:36:54.512Z,6.01
2023-02-01T12:39:27.052Z,6.00
2023-02-01T12:41:58.048Z,5.98
2023-02-01T12:44:33.909Z,6.08
2023-02-01T12:47:03.847Z,6.01
2023-02-01T12:49:36.224Z,6.08
2023-02-01T12:52:07.576Z,5.99
2023-02-01T12:54:38.911Z,5.93
2023-02-01T12:57:09.314Z,5.67
2023-02-01T12:59:40.498Z,5.61
2023-02-01T13:02:14.057Z,5.45
2023-02-01T13:04:45.437Z,5.39
2023-02-01T13:07:17.739Z,5.26
2023-02-01T13:09:51.781Z,5.10
2023-02-01T13:12:21.816Z,5.09
2023-02-01T13:14:52.299Z,5.02
2023-02-01T13:17:24.531Z,5.05
2023-02-01T13:19:55.258Z,5.19
2023-02-01T13:22:26.640Z,5.32
2023-02-01T13:24:58.763Z,5.42
2023-02-01T13:27:31.445Z,5.45
2023-02-01T13:30:02.247Z,5.32
2023-02-01T13:33:50.133Z,5.21
2023-02-01T13:35:38.737Z,5.21
2023-02-01T13:38:23.671Z,5.20
2023-02-01T13:40:56.228Z,5.18
2023-02-01T13:43:26.048Z,5.14
2023-02-01T13:45:56.976Z,5.25
2023-02-01T13:48:27.396Z,5.22
2023-02-01T13:50:57.394Z,5.22
2023-02-01T13:53:29.293Z,5.23
2023-02-01T13:56:01.242Z,5.21
2023-02-01T13:58:34.776Z,5.23
2023-02-01T14:01:23.163Z,5.37
2023-02-01T14:03:52.623Z,5.26
2023-02-01T14:06:39.408Z,5.30
2023-02-01T14:09:15.138Z,5.21
2023-02-01T14:11:47.369Z,5.37
2023-02-01T14:14:47.164Z,5.43
2023-02-01T14:17:34.268Z,5.36
2023-02-01T14:20:22.216Z,5.33
2023-02-01T14:22:52.051Z,5.34
2023-02-01T14:25:21.841Z,5.46
2023-02-01T14:27:53.163Z,5.52
2023-02-01T14:30:25.622Z,5.54
2023-02-01T14:32:55.484Z,5.52
2023-02-01T14:35:27.104Z,5.37
2023-02-01T14:38:01.011Z,5.60
2023-02-01T14:40:30.587Z,5.45
2023-02-01T14:43:01.742Z,5.42
2023-02-01T14:45:51.263Z,5.34
2023-02-01T14:48:39.211Z,5.28
2023-02-01T14:51:08.565Z,5.31
2023-02-01T14:53:38.659Z,5.26
2023-02-01T14:56:10.259Z,5.19
2023-02-01T14:58:42.607Z,5.09
2023-02-01T15:01:20.861Z,5.20
2023-02-01T15:03:52.451Z,5.10
2023-02-01T15:06:24.555Z,4.96
2023-02-01T15:08:55.759Z,5.07
2023-02-01T15:11:25.086Z,4.99
2023-02-01T15:13:57.324Z,5.09
2023-02-01T15:16:27.294Z,5.03
2023-02-01T15:19:10.740Z,5.14
2023-02-01T15:21:47.598Z,5.28
2023-02-01T15:24:20.530Z,5.20
2023-02-01T15:26:50.057Z,5.13
2023-02-01T15:29:21.294Z,5.22
2023-02-01T15:31:51.609Z,5.22
2023-02-01T15:34:21.793Z,5.36
2023-02-01T15:37:02.541Z,5.42
2023-02-01T15:39:33.614Z,5.13
2023-02-01T15:42:03.476Z,5.14
2023-02-01T15:44:36.561Z,5.24
2023-02-01T15:47:11.909Z,5.34
2023-02-01T15:49:41.610Z,5.41
2023-02-01T15:52:29.532Z,5.32
2023-02-01T15:54:59.598Z,4.90
2023-02-01T15:57:31.869Z,5.22
2023-02-01T16:00:04.412Z,5.34
2023-02-01T16:02:36.389Z,5.36
2023-02-01T16:05:06.910Z,5.34
2023-02-01T16:07:36.359Z,5.38
2023-02-01T16:10:23.031Z,5.34
2023-02-01T16:12:55.529Z,5.22
2023-02-01T16:15:26.825Z,5.26
2023-02-01T16:17:56.171Z,5.11
2023-02-01T16:20:25.871Z,5.07
2023-02-01T16:22:55.104Z,5.19
2023-02-01T16:25:25.218Z,5.25
2023-02-01T16:27:55.124Z,5.16
2023-02-01T16:30:31.357Z,5.24
2023-02-01T16:33:03.985Z,5.21
2023-02-01T16:35:37.980Z,5.23
2023-02-01T16:38:17.437Z,5.06
2023-02-01T16:41:01.996Z,5.03
2023-02-01T16:43:40.173Z,4.84
2023-02-01T16:46:25.989Z,4.55
2023-02-01T16:49:04.499Z,4.62
2023-02-01T16:51:36.481Z,4.58
2023-02-01T16:54:06.760Z,4.75
2023-02-01T16:56:37.137Z,4.81
2023-02-01T16:59:09.858Z,4.71
2023-02-01T17:01:44.815Z,4.65
2023-02-01T17:04:17.065Z,4.57
2023-02-01T17:06:54.160Z,4.81
2023-02-01T17:09:33.731Z,4.61
2023-02-01T17:12:04.013Z,4.65
2023-02-01T17:14:37.365Z,4.74
2023-02-01T17:17:10.060Z,4.60
2023-02-01T17:19:39.687Z,4.79
2023-02-01T17:22:11.345Z,4.72
2023-02-01T17:24:49.200Z,4.72
2023-02-01T17:27:21.435Z,4.77
2023-02-01T17:29:51.855Z,4.96
2023-02-01T17:32:23.951Z,4.77
2023-02-01T17:35:00.892Z,4.83
2023-02-01T17:37:32.185Z,4.92
2023-02-01T17:40:02.099Z,4.67
2023-02-01T17:42:32.283Z,4.79
2023-02-01T17:45:04.033Z,4.90
2023-02-01T17:47:41.930Z,4.99
2023-02-01T17:50:12.672Z,4.90
2023-02-01T17:52:42.693Z,4.87
2023-02-01T17:55:23.685Z,4.86
2023-02-01T17:57:53.764Z,5.03
2023-02-01T18:00:23.647Z,5.01
2023-02-01T18:02:56.419Z,4.84
2023-02-01T18:05:28.299Z,4.86
2023-02-01T18:07:58.183Z,4.90
2023-02-01T18:10:27.625Z,4.81
2023-02-01T18:12:57.600Z,4.98
2023-02-01T18:15:29.681Z,4.78
2023-02-01T18:18:01.133Z,4.81
2023-02-01T18:20:30.763Z,5.09
2023-02-01T18:23:00.512Z,5.04
2023-02-01T18:25:30.464Z,5.05
2023-02-01T18:28:00.254Z,5.14
2023-02-01T18:30:30.936Z,5.08
2023-02-01T18:33:02.071Z,5.00
2023-02-01T18:39:58.642Z,5.18
2023-02-01T18:50:37.468Z,4.94
2023-02-01T18:53:07.593Z,4.96
2023-02-01T18:55:36.844Z,5.01
2023-02-01T18:58:07.415Z,5.10
2023-02-01T19:00:37.010Z,5.11
2023-02-01T19:03:06.649Z,4.82
2023-02-01T19:05:37.513Z,4.75
2023-02-01T19:08:07.168Z,4.87
2023-02-01T19:10:39.051Z,4.85
2023-02-01T19:13:10.291Z,4.75
2023-02-01T19:15:40.505Z,5.01
2023-02-01T19:18:10.221Z,5.10
2023-02-01T19:20:45.122Z,4.85
2023-02-01T19:23:14.943Z,4.96
2023-02-01T19:25:44.843Z,5.03
2023-02-01T19:28:14.764Z,4.93
2023-02-01T19:30:45.144Z,4.98
2023-02-01T19:33:14.868Z,4.90
2023-02-01T19:35:45.590Z,5.05
2023-02-01T19:38:15.614Z,5.11
2023-02-01T19:40:44.953Z,4.87
2023-02-01T19:43:14.535Z,4.70
2023-02-01T19:45:44.532Z,4.92
2023-02-01T19:48:15.877Z,4.98
2023-02-01T19:50:46.991Z,4.81
2023-02-01T19:53:16.695Z,4.78
2023-02-01T19:55:46.408Z,4.97
2023-02-01T19:58:16.070Z,4.90
2023-02-01T20:00:44.460Z,4.75
2023-02-01T20:03:14.165Z,4.80
2023-02-01T20:05:43.363Z,4.93
2023-02-01T20:08:14.432Z,4.67
2023-02-01T20:10:45.108Z,4.79
2023-02-01T20:13:14.722Z,4.77
2023-02-01T20:15:44.052Z,4.64
2023-02-01T20:18:13.737Z,4.79
2023-02-01T20:20:43.023Z,4.82
2023-02-01T20:23:14.100Z,4.51
2023-02-01T20:25:44.164Z,4.54
2023-02-01T20:28:13.733Z,4.61
2023-02-01T20:30:45.076Z,4.70
2023-02-01T20:33:14.712Z,4.63
2023-02-01T20:35:45.551Z,4.61
2023-02-01T20:38:16.560Z,4.80
2023-02-01T20:40:45.773Z,4.59
2023-02-01T20:43:15.390Z,4.54
2023-02-01T20:45:44.800Z,4.68
2023-02-01T20:48:15.382Z,4.69
2023-02-01T20:50:45.279Z,4.49
2023-02-01T20:53:26.047Z,4.53
2023-02-01T20:55:59.417Z,4.55
2023-02-01T20:58:29.033Z,4.55
2023-02-01T21:00:58.348Z,4.46
2023-02-01T21:03:27.975Z,4.46
2023-02-01T21:05:57.783Z,4.48
2023-02-01T21:08:28.160Z,4.56
2023-02-01T21:10:59.391Z,4.49
2023-02-01T21:13:30.426Z,4.55
2023-02-01T21:15:59.818Z,4.55
2023-02-01T21:18:29.503Z,4.59
2023-02-01T21:20:59.325Z,4.52
2023-02-01T21:23:28.795Z,4.43
2023-02-01T21:26:00.174Z,4.56
2023-02-01T21:28:29.803Z,4.63
2023-02-01T21:31:00.212Z,4.55
2023-02-01T21:33:30.010Z,4.45
2023-02-01T21:35:59.305Z,4.54
2023-02-01T21:38:29.026Z,4.55
2023-02-01T21:41:18.166Z,4.59
2023-02-01T21:43:48.002Z,4.54
2023-02-01T21:46:18.332Z,4.64
2023-02-01T21:49:05.233Z,4.72
2023-02-01T21:51:38.197Z,4.66
2023-02-01T21:54:08.795Z,4.52
2023-02-01T21:56:39.768Z,4.60
2023-02-01T21:59:10.280Z,4.57
2023-02-01T22:01:39.677Z,4.42
2023-02-01T22:04:10.357Z,4.44
2023-02-01T22:06:41.446Z,4.56
2023-02-01T22:09:12.616Z,4.65
2023-02-01T22:11:43.401Z,4.73
2023-02-01T22:14:12.966Z,4.64
2023-02-01T22:16:42.610Z,4.80
2023-02-01T22:19:12.609Z,4.77
2023-02-01T22:21:42.243Z,4.85
2023-02-01T22:24:12.070Z,4.71
2023-02-01T22:26:43.114Z,4.81
2023-02-01T22:29:14.859Z,4.91
2023-02-01T22:31:44.445Z,4.83
2023-02-01T22:34:14.260Z,4.85
2023-02-01T22:36:43.768Z,4.89
2023-02-01T22:39:13.575Z,4.89
2023-02-01T22:41:44.430Z,4.92
2023-02-01T22:44:14.195Z,4.67
2023-02-01T22:46:43.633Z,4.57
2023-02-01T22:49:13.442Z,4.71
2023-02-01T22:51:42.770Z,4.37
2023-02-01T22:54:15.461Z,4.54
2023-02-01T22:56:46.426Z,4.45
2023-02-01T22:59:16.441Z,4.48
2023-02-01T23:01:45.864Z,4.36
2023-02-01T23:04:16.357Z,4.57
2023-02-01T23:06:45.969Z,4.18
2023-02-01T23:09:22.373Z,4.09
2023-02-01T23:12:14.099Z,3.93
2023-02-01T23:15:17.847Z,4.12
2023-02-01T23:17:55.645Z,4.30
2023-02-01T23:20:26.110Z,4.13
2023-02-01T23:22:55.823Z,4.11
2023-02-01T23:25:25.403Z,4.22
2023-02-01T23:27:56.933Z,4.25
2023-02-01T23:30:26.185Z,4.20
2023-02-01T23:32:55.878Z,4.19
2023-02-01T23:35:25.495Z,4.19
2023-02-01T23:37:55.447Z,4.27
2023-02-01T23:40:24.788Z,4.32
2023-02-01T23:43:08.089Z,4.33
2023-02-01T23:45:38.904Z,4.38
2023-02-01T23:48:08.684Z,4.38
2023-02-01T23:50:38.087Z,4.42
2023-02-01T23:53:07.836Z,4.43
2023-02-01T23:55:37.127Z,4.45
2023-02-01T23:58:06.864Z,4.49
